createdAt,value
2023-03-05T00:01:18.752Z,74.69
2023-03-05T00:03:53.008Z,74.40
2023-03-05T00:06:27.657Z,73.87
2023-03-05T00:09:00.634Z,74.77
2023-03-05T00:11:33.852Z,74.17
2023-03-05T00:14:06.696Z,74.44
2023-03-05T00:16:41.142Z,74.04
2023-03-05T00:19:14.135Z,73.35
2023-03-05T00:21:46.640Z,74.22
2023-03-05T00:24:19.754Z,74.14
2023-03-05T00:26:53.293Z,73.23
2023-03-05T00:29:26.365Z,73.92
2023-03-05T00:32:00.622Z,73.40
2023-03-05T00:34:33.832Z,73.40
2023-03-05T00:37:06.596Z,74.22
2023-03-05T00:39:39.419Z,73.70
2023-03-05T00:42:12.228Z,74.20
2023-03-05T00:44:44.864Z,73.46
2023-03-05T00:47:19.528Z,73.56
2023-03-05T00:49:51.951Z,73.05
2023-03-05T00:52:24.995Z,73.60
2023-03-05T00:54:57.509Z,73.18
2023-03-05T00:57:31.178Z,73.04
2023-03-05T01:00:05.052Z,72.82
2023-03-05T01:02:39.506Z,72.47
2023-03-05T01:05:13.702Z,73.04
2023-03-05T01:07:46.530Z,72.90
2023-03-05T01:10:18.984Z,72.72
2023-03-05T01:12:51.680Z,72.24
2023-03-05T01:15:25.491Z,72.79
2023-03-05T01:17:59.970Z,72.98
2023-03-05T01:20:32.791Z,72.00
2023-03-05T01:23:06.589Z,72.26
2023-03-05T01:25:39.555Z,72.40
2023-03-05T01:28:12.318Z,72.45
2023-03-05T01:30:45.038Z,72.72
2023-03-05T01:33:20.522Z,71.58
2023-03-05T01:35:53.348Z,72.04
2023-03-05T01:38:26.455Z,71.85
2023-03-05T01:40:58.859Z,72.01
2023-03-05T01:43:31.980Z,71.89
2023-03-05T01:46:28.191Z,71.69
2023-03-05T01:49:17.294Z,71.68
2023-03-05T01:51:57.518Z,71.05
2023-03-05T01:54:34.428Z,71.47
2023-03-05T01:57:11.402Z,71.32
2023-03-05T01:59:47.249Z,71.12
2023-03-05T02:02:22.692Z,71.25
2023-03-05T02:05:00.819Z,70.81
2023-03-05T02:07:37.830Z,71.72
2023-03-05T02:10:19.038Z,71.35
2023-03-05T02:12:53.571Z,70.43
2023-03-05T02:15:27.074Z,70.57
2023-03-05T02:18:01.439Z,70.79
2023-03-05T02:20:47.125Z,70.63
2023-03-05T02:23:23.055Z,70.79
2023-03-05T02:25:56.761Z,70.52
2023-03-05T02:28:34.025Z,71.28
2023-03-05T02:31:10.171Z,70.85
2023-03-05T02:33:43.254Z,71.39
2023-03-05T02:36:16.574Z,71.60
2023-03-05T02:38:53.094Z,70.91
2023-03-05T02:41:27.089Z,70.77
2023-03-05T02:44:01.921Z,71.14
2023-03-05T02:46:35.037Z,70.75
2023-03-05T02:49:07.497Z,70.41
2023-03-05T02:51:40.656Z,70.94
2023-03-05T02:54:15.309Z,71.14
2023-03-05T02:56:48.459Z,70.98
2023-03-05T02:59:20.837Z,70.37
2023-03-05T03:01:53.946Z,69.98
2023-03-05T03:04:26.588Z,70.26
2023-03-05T03:06:59.085Z,70.86
2023-03-05T03:09:35.033Z,70.09
2023-03-05T03:12:08.245Z,70.58
2023-03-05T03:14:43.021Z,70.58
2023-03-05T03:17:17.508Z,70.47
2023-03-05T03:19:50.321Z,69.76
2023-03-05T03:22:23.529Z,70.53
2023-03-05T03:24:57.508Z,70.34
2023-03-05T03:27:30.214Z,70.12
2023-03-05T03:30:04.954Z,70.16
2023-03-05T03:32:38.419Z,70.04
2023-03-05T03:35:12.594Z,70.10
2023-03-05T03:37:45.335Z,69.66
2023-03-05T03:40:19.640Z,69.39
2023-03-05T03:42:52.878Z,69.21
2023-03-05T03:45:25.279Z,69.01
2023-03-05T03:47:58.039Z,69.54
2023-03-05T03:50:31.191Z,69.47
2023-03-05T03:53:03.628Z,69.37
2023-03-05T03:55:38.070Z,69.66
2023-03-05T03:58:10.760Z,69.50
2023-03-05T04:00:43.969Z,69.30
2023-03-05T04:03:16.425Z,69.27
2023-03-05T04:05:49.159Z,69.64
2023-03-05T04:08:21.780Z,69.04
2023-03-05T04:10:56.274Z,69.40
2023-03-05T04:13:29.034Z,69.54
2023-03-05T04:16:02.128Z,69.77
2023-03-05T04:18:34.651Z,69.83
2023-03-05T04:21:07.555Z,69.80
2023-03-05T04:23:40.754Z,69.59
2023-03-05T04:26:14.923Z,70.37
2023-03-05T04:28:48.522Z,69.94
2023-03-05T04:31:21.700Z,70.11
2023-03-05T04:33:54.792Z,70.09
2023-03-05T04:36:27.793Z,70.18
2023-03-05T04:39:00.773Z,69.15
2023-03-05T04:41:34.707Z,69.55
2023-03-05T04:44:08.038Z,69.90
2023-03-05T04:46:40.943Z,69.69
2023-03-05T04:49:13.624Z,69.77
2023-03-05T04:51:46.804Z,69.20
2023-03-05T04:54:19.252Z,69.57
2023-03-05T04:56:53.699Z,69.14
2023-03-05T04:59:26.240Z,69.10
2023-03-05T05:01:59.074Z,69.67
2023-03-05T05:04:32.061Z,69.89
2023-03-05T05:07:05.443Z,69.46
2023-03-05T05:09:38.745Z,69.13
2023-03-05T05:12:13.232Z,69.48
2023-03-05T05:14:45.664Z,69.54
2023-03-05T05:17:18.749Z,69.70
2023-03-05T05:19:51.178Z,69.08
2023-03-05T05:22:24.241Z,68.64
2023-03-05T05:24:57.521Z,68.66
2023-03-05T05:27:31.415Z,68.60
2023-03-05T05:30:04.710Z,68.43
2023-03-05T05:32:37.611Z,68.23
2023-03-05T05:35:11.411Z,68.37
2023-03-05T05:37:44.311Z,68.97
2023-03-05T05:40:17.729Z,68.38
2023-03-05T05:42:51.629Z,68.91
2023-03-05T05:45:24.753Z,68.60
2023-03-05T05:47:57.990Z,68.87
2023-03-05T05:50:30.497Z,69.23
2023-03-05T05:53:03.511Z,68.72
2023-03-05T05:55:35.888Z,68.13
2023-03-05T05:58:10.293Z,68.68
2023-03-05T06:00:43.013Z,68.23
2023-03-05T06:03:15.565Z,68.40
2023-03-05T06:05:48.688Z,68.56
2023-03-05T06:08:21.233Z,68.39
2023-03-05T06:10:55.124Z,68.03
2023-03-05T06:13:29.002Z,68.66
2023-03-05T06:16:04.203Z,68.73
2023-03-05T06:18:37.052Z,68.51
2023-03-05T06:21:12.768Z,68.22
2023-03-05T06:23:46.491Z,67.51
2023-03-05T06:26:21.226Z,67.34
2023-03-05T06:28:55.532Z,67.09
2023-03-05T06:31:30.307Z,66.92
2023-03-05T06:34:02.771Z,67.76
2023-03-05T06:36:36.027Z,67.93
2023-03-05T06:39:09.320Z,68.11
2023-03-05T06:41:42.314Z,67.91
2023-03-05T06:44:16.047Z,68.01
2023-03-05T06:46:48.753Z,67.28
2023-03-05T06:49:21.768Z,67.24
2023-03-05T06:51:54.627Z,67.32
2023-03-05T06:54:27.081Z,67.89
2023-03-05T06:56:59.923Z,67.21
2023-03-05T06:59:33.666Z,67.25
2023-03-05T07:02:07.048Z,67.98
2023-03-05T07:04:39.544Z,67.31
2023-03-05T07:07:12.510Z,67.42
2023-03-05T07:09:46.388Z,67.47
2023-03-05T07:12:18.951Z,66.33
2023-03-05T07:14:53.022Z,65.94
2023-03-05T07:17:25.983Z,66.32
2023-03-05T07:19:58.782Z,66.40
2023-03-05T07:22:33.546Z,66.01
2023-03-05T07:25:10.994Z,66.26
2023-03-05T07:27:45.570Z,65.35
2023-03-05T07:30:19.881Z,66.12
2023-03-05T07:32:52.355Z,65.88
2023-03-05T07:35:25.210Z,64.61
2023-03-05T07:37:58.364Z,65.42
2023-03-05T07:40:31.546Z,66.06
2023-03-05T07:43:04.154Z,66.23
2023-03-05T07:45:42.469Z,65.98
2023-03-05T07:48:16.937Z,65.72
2023-03-05T07:50:49.911Z,65.74
2023-03-05T07:53:22.542Z,65.40
2023-03-05T07:55:55.514Z,65.24
2023-03-05T07:58:27.931Z,65.41
2023-03-05T08:01:02.692Z,65.57
2023-03-05T08:03:35.540Z,64.90
2023-03-05T08:06:08.871Z,64.89
2023-03-05T08:08:42.896Z,64.27
2023-03-05T08:11:16.815Z,64.08
2023-03-05T08:13:49.996Z,64.19
2023-03-05T08:16:26.168Z,64.17
2023-03-05T08:18:59.656Z,64.93
2023-03-05T08:21:33.919Z,64.92
2023-03-05T08:24:09.257Z,64.34
2023-03-05T08:26:42.256Z,64.64
2023-03-05T08:29:15.078Z,63.72
2023-03-05T08:31:49.914Z,63.39
2023-03-05T08:34:23.209Z,63.48
2023-03-05T08:36:55.994Z,63.26
2023-03-05T08:39:30.325Z,63.67
2023-03-05T08:42:04.646Z,62.93
2023-03-05T08:44:37.536Z,62.97
2023-03-05T08:47:11.687Z,62.91
2023-03-05T08:49:44.339Z,62.26
2023-03-05T08:52:16.990Z,63.21
2023-03-05T08:54:50.390Z,62.92
2023-03-05T08:57:22.824Z,63.13
2023-03-05T08:59:55.176Z,62.91
2023-03-05T09:02:30.225Z,63.50
2023-03-05T09:05:03.771Z,63.16
2023-03-05T09:07:38.265Z,63.45
2023-03-05T09:10:13.802Z,63.38
2023-03-05T09:12:46.590Z,64.06
2023-03-05T09:15:19.276Z,63.51
2023-03-05T09:17:53.998Z,63.89
2023-03-05T09:20:26.847Z,64.19
2023-03-05T09:22:59.982Z,64.17
2023-03-05T09:25:32.407Z,63.77
2023-03-05T09:28:05.481Z,63.98
2023-03-05T09:30:39.153Z,63.49
2023-03-05T09:33:13.030Z,63.57
2023-03-05T09:35:45.797Z,63.97
2023-03-05T09:38:19.393Z,64.00
2023-03-05T09:40:59.681Z,63.98
2023-03-05T09:43:44.353Z,63.33
2023-03-05T09:46:32.120Z,63.22
2023-03-05T09:49:15.058Z,63.40
2023-03-05T09:51:52.268Z,63.53
2023-03-05T09:54:32.886Z,63.65
2023-03-05T09:57:14.091Z,63.07
2023-03-05T09:59:50.600Z,62.75
2023-03-05T10:02:26.526Z,63.27
2023-03-05T10:05:05.067Z,63.22
2023-03-05T10:07:41.824Z,63.51
2023-03-05T10:10:18.502Z,63.70
2023-03-05T10:12:54.335Z,63.86
2023-03-05T10:15:38.566Z,62.99
2023-03-05T10:18:23.241Z,63.27
2023-03-05T10:21:00.426Z,63.02
2023-03-05T10:23:56.394Z,63.59
2023-03-05T10:26:44.962Z,63.36
2023-03-05T10:29:33.773Z,62.83
2023-03-05T10:32:18.696Z,63.61
2023-03-05T10:35:16.362Z,63.52
2023-03-05T10:38:36.795Z,63.66
2023-03-05T10:41:21.243Z,63.71
2023-03-05T10:44:01.996Z,63.52
2023-03-05T10:46:37.424Z,63.70
2023-03-05T10:49:19.367Z,64.19
2023-03-05T10:51:56.800Z,63.64
2023-03-05T10:54:33.079Z,63.98
2023-03-05T10:57:18.354Z,64.02
2023-03-05T10:59:53.428Z,64.24
2023-03-05T11:02:26.016Z,64.14
2023-03-05T11:04:58.775Z,63.89
2023-03-05T11:07:35.090Z,64.24
2023-03-05T11:10:17.366Z,63.87
2023-03-05T11:12:52.494Z,63.64
2023-03-05T11:15:30.385Z,64.39
2023-03-05T11:18:24.500Z,64.30
2023-03-05T11:21:08.622Z,64.60
2023-03-05T11:23:41.415Z,64.96
2023-03-05T11:26:22.342Z,64.66
2023-03-05T11:29:02.351Z,64.79
2023-03-05T11:31:35.465Z,64.92
2023-03-05T11:34:25.911Z,65.08
2023-03-05T11:37:09.034Z,64.93
2023-03-05T11:39:41.775Z,64.67
2023-03-05T11:42:24.265Z,64.59
2023-03-05T11:45:00.295Z,64.76
2023-03-05T11:47:40.229Z,64.35
2023-03-05T11:50:21.033Z,64.23
2023-03-05T11:52:57.368Z,64.10
2023-03-05T11:55:35.057Z,63.93
2023-03-05T11:58:25.200Z,64.44
2023-03-05T12:01:00.762Z,64.90
2023-03-05T12:03:35.863Z,64.37
2023-03-05T12:06:18.281Z,64.64
2023-03-05T12:08:55.283Z,65.25
2023-03-05T12:11:30.856Z,65.34
2023-03-05T12:14:10.282Z,64.60
2023-03-05T12:16:49.140Z,64.52
2023-03-05T12:19:45.673Z,64.37
2023-03-05T12:22:20.793Z,64.38
2023-03-05T12:24:53.687Z,64.60
2023-03-05T12:27:35.282Z,64.28
2023-03-05T12:30:47.298Z,64.07
2023-03-05T12:33:36.922Z,64.58
2023-03-05T12:36:37.720Z,64.57
2023-03-05T12:39:44.025Z,64.47
2023-03-05T12:42:46.222Z,64.46
2023-03-05T12:45:31.109Z,64.70
2023-03-05T12:48:43.221Z,64.43
2023-03-05T12:51:40.237Z,64.29
2023-03-05T12:54:32.428Z,64.23
2023-03-05T12:57:15.272Z,64.97
2023-03-05T12:59:54.992Z,64.82
2023-03-05T13:02:32.071Z,64.60
2023-03-05T13:05:14.427Z,64.55
2023-03-05T13:07:48.523Z,64.93
2023-03-05T13:10:24.398Z,64.88
2023-03-05T13:12:59.042Z,64.36
2023-03-05T13:15:32.821Z,63.99
2023-03-05T13:18:09.052Z,64.40
2023-03-05T13:20:42.849Z,64.25
2023-03-05T13:23:26.924Z,64.25
2023-03-05T13:26:02.249Z,64.59
2023-03-05T13:28:35.262Z,64.54
2023-03-05T13:31:14.440Z,64.91
2023-03-05T13:33:53.412Z,64.44
2023-03-05T13:36:27.490Z,64.13
2023-03-05T13:39:02.484Z,64.87
2023-03-05T13:41:35.645Z,64.83
2023-03-05T13:44:21.998Z,64.58
2023-03-05T13:47:06.507Z,64.69
2023-03-05T13:49:39.120Z,64.90
2023-03-05T13:52:12.358Z,65.11
2023-03-05T13:54:46.228Z,65.51
2023-03-05T13:57:35.493Z,65.74
2023-03-05T14:00:27.102Z,65.36
2023-03-05T14:03:07.378Z,64.98
2023-03-05T14:05:44.551Z,65.37
2023-03-05T14:08:21.739Z,65.33
2023-03-05T14:10:58.147Z,65.25
2023-03-05T14:13:32.215Z,65.68
2023-03-05T14:16:06.549Z,66.08
2023-03-05T14:18:52.727Z,66.01
2023-03-05T14:21:25.645Z,65.78
2023-03-05T14:24:11.352Z,65.52
2023-03-05T14:26:52.089Z,65.43
2023-03-05T14:29:26.577Z,65.63
2023-03-05T14:32:03.446Z,65.70
2023-03-05T14:34:39.916Z,65.78
2023-03-05T14:37:21.847Z,66.10
2023-03-05T14:39:56.892Z,65.97
2023-03-05T14:42:33.367Z,66.50
2023-03-05T14:45:12.779Z,66.52
2023-03-05T14:47:46.420Z,66.68
2023-03-05T14:50:21.790Z,66.59
2023-03-05T14:52:57.742Z,66.98
2023-03-05T14:55:32.097Z,67.00
2023-03-05T14:58:13.239Z,67.04
2023-03-05T15:00:46.036Z,66.86
2023-03-05T15:03:19.390Z,66.80
2023-03-05T15:05:55.016Z,66.53
2023-03-05T15:08:29.869Z,67.40
2023-03-05T15:11:04.361Z,67.36
2023-03-05T15:13:38.224Z,67.07
2023-03-05T15:16:16.801Z,66.82
2023-03-05T15:18:49.794Z,67.38
2023-03-05T15:21:22.733Z,67.18
2023-03-05T15:23:55.380Z,67.03
2023-03-05T15:26:28.254Z,67.90
2023-03-05T15:29:02.208Z,67.44
2023-03-05T15:31:38.822Z,67.74
2023-03-05T15:34:11.770Z,67.75
2023-03-05T15:36:44.753Z,67.84
2023-03-05T15:39:17.386Z,67.77
2023-03-05T15:41:50.224Z,67.49
2023-03-05T15:44:24.876Z,67.94
2023-03-05T15:46:57.853Z,68.01
2023-03-05T15:49:30.744Z,67.56
2023-03-05T15:52:03.964Z,67.74
2023-03-05T15:54:37.509Z,68.29
2023-03-05T15:57:12.586Z,68.63
2023-03-05T15:59:46.579Z,67.94
2023-03-05T16:02:19.707Z,68.13
2023-03-05T16:04:52.156Z,68.03
2023-03-05T16:07:25.248Z,68.68
2023-03-05T16:09:58.713Z,68.90
2023-03-05T16:12:41.130Z,68.75
2023-03-05T16:15:18.114Z,68.84
2023-03-05T16:17:54.788Z,68.85
2023-03-05T16:20:27.558Z,68.39
2023-03-05T16:23:00.184Z,68.49
2023-03-05T16:25:33.170Z,68.64
2023-03-05T16:28:06.494Z,68.96
2023-03-05T16:30:41.066Z,68.22
2023-03-05T16:33:14.057Z,68.62
2023-03-05T16:35:47.349Z,69.03
2023-03-05T16:38:20.382Z,68.69
2023-03-05T16:41:07.341Z,69.47
2023-03-05T16:43:41.120Z,69.07
2023-03-05T16:46:15.086Z,69.27
2023-03-05T16:48:49.627Z,69.04
2023-03-05T16:51:22.734Z,68.96
2023-03-05T16:53:55.902Z,68.88
2023-03-05T16:56:28.670Z,68.63
2023-03-05T16:59:01.788Z,68.76
2023-03-05T17:01:35.913Z,68.74
2023-03-05T17:04:08.720Z,68.89
2023-03-05T17:06:41.399Z,68.79
2023-03-05T17:09:14.502Z,68.48
2023-03-05T17:11:46.961Z,68.68
2023-03-05T17:14:20.199Z,68.67
2023-03-05T17:16:54.766Z,68.85
2023-03-05T17:19:27.655Z,69.07
2023-03-05T17:22:01.167Z,69.37
2023-03-05T17:24:33.672Z,69.50
2023-03-05T17:27:06.634Z,69.49
2023-03-05T17:29:39.666Z,69.52
2023-03-05T17:32:13.568Z,69.45
2023-03-05T17:34:46.305Z,68.90
2023-03-05T17:37:19.408Z,68.79
2023-03-05T17:39:52.270Z,69.62
2023-03-05T17:42:25.347Z,69.06
2023-03-05T17:44:59.340Z,69.51
2023-03-05T17:47:34.460Z,68.82
2023-03-05T17:50:08.437Z,69.14
2023-03-05T17:52:42.047Z,69.26
2023-03-05T17:55:17.359Z,69.83
2023-03-05T17:57:50.573Z,69.81
2023-03-05T18:00:25.512Z,69.87
2023-03-05T18:03:00.709Z,69.89
2023-03-05T18:05:33.363Z,69.27
2023-03-05T18:08:06.495Z,69.94
2023-03-05T18:10:39.480Z,69.88
2023-03-05T18:13:12.657Z,69.55
2023-03-05T18:15:48.218Z,70.36
2023-03-05T18:18:22.771Z,69.38
2023-03-05T18:20:55.837Z,69.68
2023-03-05T18:23:28.552Z,69.63
2023-03-05T18:26:01.173Z,70.13
2023-03-05T18:28:34.162Z,69.76
2023-03-05T18:31:06.960Z,70.15
2023-03-05T18:33:42.332Z,69.57
2023-03-05T18:36:15.249Z,69.73
2023-03-05T18:38:48.066Z,69.80
2023-03-05T18:41:24.005Z,69.60
2023-03-05T18:43:58.960Z,69.58
2023-03-05T18:46:31.887Z,69.56
2023-03-05T18:49:06.605Z,69.63
2023-03-05T18:51:41.671Z,69.45
2023-03-05T18:54:15.005Z,70.22
2023-03-05T18:56:48.436Z,69.89
2023-03-05T18:59:21.494Z,69.90
2023-03-05T19:01:54.161Z,70.67
2023-03-05T19:04:28.474Z,70.78
2023-03-05T19:07:04.868Z,70.84
2023-03-05T19:09:54.843Z,70.09
2023-03-05T19:12:31.853Z,70.79
2023-03-05T19:15:06.666Z,70.97
2023-03-05T19:17:39.545Z,71.35
2023-03-05T19:20:14.396Z,71.35
2023-03-05T19:22:47.757Z,71.36
2023-03-05T19:25:20.256Z,71.25
2023-03-05T19:27:53.065Z,71.16
2023-03-05T19:30:25.821Z,71.84
2023-03-05T19:32:58.904Z,71.53
2023-03-05T19:35:33.244Z,71.22
2023-03-05T19:38:05.729Z,71.48
2023-03-05T19:40:40.825Z,71.47
2023-03-05T19:43:13.458Z,72.49
2023-03-05T19:45:46.475Z,72.46
2023-03-05T19:48:19.223Z,72.64
2023-03-05T19:50:53.710Z,72.81
2023-03-05T19:53:26.909Z,72.22
2023-03-05T19:56:03.119Z,72.44
2023-03-05T19:58:36.758Z,72.91
2023-03-05T20:01:11.396Z,72.51
2023-03-05T20:03:45.705Z,72.29
2023-03-05T20:06:20.057Z,72.60
2023-03-05T20:08:53.496Z,72.39
2023-03-05T20:11:26.725Z,72.29
2023-03-05T20:14:01.602Z,73.37
2023-03-05T20:16:35.885Z,73.05
2023-03-05T20:19:10.930Z,72.43
2023-03-05T20:21:45.643Z,72.86
2023-03-05T20:24:20.572Z,72.49
2023-03-05T20:26:53.037Z,72.26
2023-03-05T20:29:26.203Z,72.50
2023-03-05T20:31:59.956Z,72.79
2023-03-05T20:34:32.722Z,72.27
2023-03-05T20:37:07.574Z,72.34
2023-03-05T20:39:40.675Z,73.01
2023-03-05T20:42:13.476Z,72.90
2023-03-05T20:44:46.347Z,72.77
2023-03-05T20:47:41.014Z,73.34
2023-03-05T20:50:15.435Z,73.37
2023-03-05T20:52:49.264Z,73.52
2023-03-05T20:55:23.557Z,73.17
2023-03-05T20:57:56.984Z,73.30
2023-03-05T21:00:30.031Z,73.36
2023-03-05T21:03:03.000Z,73.64
2023-03-05T21:05:37.051Z,73.31
2023-03-05T21:08:10.855Z,73.74
2023-03-05T21:10:44.000Z,73.76
2023-03-05T21:13:16.598Z,74.48
2023-03-05T21:15:49.398Z,74.77
2023-03-05T21:18:22.111Z,74.54
2023-03-05T21:20:55.183Z,75.09
2023-03-05T21:23:29.723Z,74.66
2023-03-05T21:26:04.560Z,75.92
2023-03-05T21:28:39.053Z,75.61
2023-03-05T21:31:15.801Z,74.95
2023-03-05T21:33:48.535Z,75.63
2023-03-05T21:36:21.648Z,74.81
2023-03-05T21:38:55.556Z,75.23
2023-03-05T21:41:28.646Z,74.98
2023-03-05T21:44:04.229Z,75.72
2023-03-05T21:46:37.609Z,75.93
2023-03-05T21:49:10.402Z,75.13
2023-03-05T21:52:12.356Z,75.74
2023-03-05T21:54:47.015Z,75.65
2023-03-05T21:57:19.696Z,75.82
2023-03-05T21:59:53.028Z,75.45
2023-03-05T22:02:25.846Z,75.38
2023-03-05T22:04:59.081Z,76.09
2023-03-05T22:07:31.628Z,75.37
2023-03-05T22:10:07.324Z,76.13
2023-03-05T22:13:11.883Z,75.70
2023-03-05T22:15:46.997Z,75.51
2023-03-05T22:18:22.893Z,75.40
2023-03-05T22:20:56.159Z,75.89
2023-03-05T22:23:31.953Z,75.62
2023-03-05T22:26:07.958Z,75.51
2023-03-05T22:28:41.211Z,75.60
2023-03-05T22:31:21.558Z,74.97
2023-03-05T22:33:54.438Z,75.55
2023-03-05T22:36:26.895Z,75.55
2023-03-05T22:38:59.611Z,75.37
2023-03-05T22:41:34.490Z,75.60
2023-03-05T22:44:06.884Z,75.07
2023-03-05T22:46:39.847Z,75.58
2023-03-05T22:49:12.334Z,75.67
2023-03-05T22:51:45.099Z,75.29
2023-03-05T22:54:17.418Z,75.86
2023-03-05T22:56:51.953Z,75.73
2023-03-05T22:59:24.739Z,74.98
2023-03-05T23:01:57.937Z,75.80
2023-03-05T23:04:53.756Z,74.81
2023-03-05T23:07:27.739Z,75.75
2023-03-05T23:10:03.513Z,75.43
2023-03-05T23:12:41.212Z,74.79
2023-03-05T23:15:16.421Z,75.44
2023-03-05T23:17:49.744Z,75.00
2023-03-05T23:20:25.261Z,74.68
2023-03-05T23:22:58.063Z,75.44
2023-03-05T23:25:33.443Z,75.04
2023-03-05T23:28:07.247Z,74.38
2023-03-05T23:30:40.242Z,74.68
2023-03-05T23:33:15.384Z,74.38
2023-03-05T23:35:53.183Z,74.88
2023-03-05T23:38:28.087Z,75.29
2023-03-05T23:41:03.253Z,74.16
2023-03-05T23:43:37.124Z,74.75
2023-03-05T23:46:11.746Z,74.06
2023-03-05T23:48:44.257Z,75.01
2023-03-05T23:51:17.565Z,74.44
2023-03-05T23:53:50.235Z,75.18
2023-03-05T23:56:23.381Z,75.30
2023-03-05T23:59:00.649Z,74.55
